sensor_id;sensor_type;location;lat;lon;timestamp;P1;durP1;ratioP1;P2;durP2;ratioP2
51810;SDS011;52468;40.116;18.296;2022-08-01T00:01:29;5.90;;;3.20;;
51810;SDS011;52468;40.116;18.296;2022-08-01T00:03:57;5.10;;;3.23;;
51810;SDS011;52468;40.116;18.296;2022-08-01T00:06:25;13.00;;;3.97;;
51810;SDS011;52468;40.116;18.296;2022-08-01T00:08:53;6.77;;;3.03;;
51810;SDS011;52468;40.116;18.296;2022-08-01T00:11:21;6.13;;;3.30;;
51810;SDS011;52468;40.116;18.296;2022-08-01T00:13:49;8.80;;;3.30;;
51810;SDS011;52468;40.116;18.296;2022-08-01T00:16:17;5.93;;;3.20;;
51810;SDS011;52468;40.116;18.296;2022-08-01T00:18:44;4.63;;;2.87;;
51810;SDS011;52468;40.116;18.296;2022-08-01T00:21:12;8.63;;;3.70;;
51810;SDS011;52468;40.116;18.296;2022-08-01T00:23:40;12.57;;;3.40;;
51810;SDS011;52468;40.116;18.296;2022-08-01T00:26:08;6.77;;;3.13;;
51810;SDS011;52468;40.116;18.296;2022-08-01T00:28:36;4.90;;;3.43;;
51810;SDS011;52468;40.116;18.296;2022-08-01T00:31:04;6.43;;;4.17;;
51810;SDS011;52468;40.116;18.296;2022-08-01T00:33:32;9.87;;;3.53;;
51810;SDS011;52468;40.116;18.296;2022-08-01T00:35:59;9.70;;;3.73;;
51810;SDS011;52468;40.116;18.296;2022-08-01T00:38:27;8.43;;;3.17;;
51810;SDS011;52468;40.116;18.296;2022-08-01T00:40:56;9.83;;;3.70;;
51810;SDS011;52468;40.116;18.296;2022-08-01T00:43:24;5.63;;;2.90;;
51810;SDS011;52468;40.116;18.296;2022-08-01T00:45:52;12.70;;;3.67;;
51810;SDS011;52468;40.116;18.296;2022-08-01T00:48:20;6.27;;;3.60;;
51810;SDS011;52468;40.116;18.296;2022-08-01T00:50:47;4.77;;;3.00;;
51810;SDS011;52468;40.116;18.296;2022-08-01T00:53:16;9.10;;;3.20;;
51810;SDS011;52468;40.116;18.296;2022-08-01T00:55:44;10.00;;;3.70;;
51810;SDS011;52468;40.116;18.296;2022-08-01T00:58:12;3.80;;;2.83;;
51810;SDS011;52468;40.116;18.296;2022-08-01T01:00:40;6.93;;;4.37;;
51810;SDS011;52468;40.116;18.296;2022-08-01T01:03:07;9.03;;;4.23;;
51810;SDS011;52468;40.116;18.296;2022-08-01T01:05:38;11.20;;;4.93;;
51810;SDS011;52468;40.116;18.296;2022-08-01T01:08:16;6.43;;;4.13;;
51810;SDS011;52468;40.116;18.296;2022-08-01T01:11:01;7.43;;;4.13;;
51810;SDS011;52468;40.116;18.296;2022-08-01T01:13:36;11.67;;;3.60;;
51810;SDS011;52468;40.116;18.296;2022-08-01T01:16:14;6.87;;;4.97;;
51810;SDS011;52468;40.116;18.296;2022-08-01T01:18:48;8.67;;;4.27;;
51810;SDS011;52468;40.116;18.296;2022-08-01T01:21:26;17.83;;;4.67;;
51810;SDS011;52468;40.116;18.296;2022-08-01T01:29:25;9.37;;;3.60;;
51810;SDS011;52468;40.116;18.296;2022-08-01T01:32:00;7.33;;;4.17;;
51810;SDS011;52468;40.116;18.296;2022-08-01T01:34:34;8.37;;;4.20;;
51810;SDS011;52468;40.116;18.296;2022-08-01T01:37:06;17.47;;;3.77;;
51810;SDS011;52468;40.116;18.296;2022-08-01T01:39:38;9.03;;;3.40;;
51810;SDS011;52468;40.116;18.296;2022-08-01T01:42:08;7.63;;;3.93;;
51810;SDS011;52468;40.116;18.296;2022-08-01T01:44:37;3.80;;;2.87;;
51810;SDS011;52468;40.116;18.296;2022-08-01T01:47:06;6.73;;;3.30;;
51810;SDS011;52468;40.116;18.296;2022-08-01T01:49:34;6.03;;;2.73;;
51810;SDS011;52468;40.116;18.296;2022-08-01T01:52:06;7.87;;;4.00;;
51810;SDS011;52468;40.116;18.296;2022-08-01T01:54:36;8.57;;;4.20;;
51810;SDS011;52468;40.116;18.296;2022-08-01T01:57:07;5.78;;;3.70;;
51810;SDS011;52468;40.116;18.296;2022-08-01T01:59:38;6.97;;;3.80;;
51810;SDS011;52468;40.116;18.296;2022-08-01T02:02:08;9.27;;;3.80;;
51810;SDS011;52468;40.116;18.296;2022-08-01T02:04:38;7.93;;;3.77;;
51810;SDS011;52468;40.116;18.296;2022-08-01T02:07:10;12.50;;;4.15;;
51810;SDS011;52468;40.116;18.296;2022-08-01T02:09:42;7.20;;;3.47;;
51810;SDS011;52468;40.116;18.296;2022-08-01T02:12:13;6.10;;;3.10;;
51810;SDS011;52468;40.116;18.296;2022-08-01T02:14:44;9.97;;;3.57;;
51810;SDS011;52468;40.116;18.296;2022-08-01T02:17:16;14.40;;;4.60;;
51810;SDS011;52468;40.116;18.296;2022-08-01T02:19:45;6.03;;;3.93;;
51810;SDS011;52468;40.116;18.296;2022-08-01T02:22:18;5.73;;;3.33;;
51810;SDS011;52468;40.116;18.296;2022-08-01T02:25:03;10.87;;;3.70;;
51810;SDS011;52468;40.116;18.296;2022-08-01T02:28:01;11.03;;;4.23;;
51810;SDS011;52468;40.116;18.296;2022-08-01T02:30:38;12.10;;;3.93;;
51810;SDS011;52468;40.116;18.296;2022-08-01T02:35:50;6.57;;;4.43;;
51810;SDS011;52468;40.116;18.296;2022-08-01T02:38:22;6.40;;;3.42;;
51810;SDS011;52468;40.116;18.296;2022-08-01T02:40:54;5.00;;;2.80;;
51810;SDS011;52468;40.116;18.296;2022-08-01T02:43:26;17.10;;;4.93;;
51810;SDS011;52468;40.116;18.296;2022-08-01T02:45:57;14.90;;;5.20;;
51810;SDS011;52468;40.116;18.296;2022-08-01T02:48:30;6.20;;;3.72;;
51810;SDS011;52468;40.116;18.296;2022-08-01T02:51:02;6.60;;;4.28;;
51810;SDS011;52468;40.116;18.296;2022-08-01T02:53:32;11.77;;;4.10;;
51810;SDS011;52468;40.116;18.296;2022-08-01T02:56:05;7.05;;;4.05;;
51810;SDS011;52468;40.116;18.296;2022-08-01T02:58:33;8.83;;;3.30;;
51810;SDS011;52468;40.116;18.296;2022-08-01T03:01:04;7.07;;;3.43;;
51810;SDS011;52468;40.116;18.296;2022-08-01T03:03:33;5.17;;;4.67;;
51810;SDS011;52468;40.116;18.296;2022-08-01T03:06:02;5.43;;;3.13;;
51810;SDS011;52468;40.116;18.296;2022-08-01T03:08:31;7.73;;;3.43;;
51810;SDS011;52468;40.116;18.296;2022-08-01T03:11:02;9.20;;;4.40;;
51810;SDS011;52468;40.116;18.296;2022-08-01T03:13:32;6.27;;;3.97;;
51810;SDS011;52468;40.116;18.296;2022-08-01T03:16:00;7.87;;;2.93;;
51810;SDS011;52468;40.116;18.296;2022-08-01T03:18:30;8.57;;;4.00;;
51810;SDS011;52468;40.116;18.296;2022-08-01T03:20:59;6.67;;;4.27;;
51810;SDS011;52468;40.116;18.296;2022-08-01T03:23:28;4.73;;;2.97;;
51810;SDS011;52468;40.116;18.296;2022-08-01T03:25:58;14.27;;;3.77;;
51810;SDS011;52468;40.116;18.296;2022-08-01T03:28:29;10.20;;;3.37;;
51810;SDS011;52468;40.116;18.296;2022-08-01T03:30:58;8.83;;;3.77;;
51810;SDS011;52468;40.116;18.296;2022-08-01T03:33:27;8.63;;;3.70;;
51810;SDS011;52468;40.116;18.296;2022-08-01T03:35:55;7.20;;;3.63;;
51810;SDS011;52468;40.116;18.296;2022-08-01T03:38:25;10.93;;;4.30;;
51810;SDS011;52468;40.116;18.296;2022-08-01T03:41:02;12.83;;;3.40;;
51810;SDS011;52468;40.116;18.296;2022-08-01T03:43:38;7.87;;;3.30;;
51810;SDS011;52468;40.116;18.296;2022-08-01T03:46:11;8.90;;;3.80;;
51810;SDS011;52468;40.116;18.296;2022-08-01T03:48:51;6.47;;;3.60;;
51810;SDS011;52468;40.116;18.296;2022-08-01T03:51:22;8.57;;;3.60;;
51810;SDS011;52468;40.116;18.296;2022-08-01T03:53:50;6.83;;;3.30;;
51810;SDS011;52468;40.116;18.296;2022-08-01T03:56:21;12.20;;;3.20;;
51810;SDS011;52468;40.116;18.296;2022-08-01T03:58:51;6.40;;;3.57;;
51810;SDS011;52468;40.116;18.296;2022-08-01T04:01:19;12.13;;;3.87;;
51810;SDS011;52468;40.116;18.296;2022-08-01T04:03:48;5.33;;;4.03;;
51810;SDS011;52468;40.116;18.296;2022-08-01T04:06:16;5.23;;;3.10;;
51810;SDS011;52468;40.116;18.296;2022-08-01T04:08:45;7.23;;;2.97;;
51810;SDS011;52468;40.116;18.296;2022-08-01T04:11:23;9.80;;;3.57;;
51810;SDS011;52468;40.116;18.296;2022-08-01T04:13:52;10.37;;;3.87;;
51810;SDS011;52468;40.116;18.296;2022-08-01T04:16:21;8.63;;;3.73;;
51810;SDS011;52468;40.116;18.296;2022-08-01T04:18:49;19.77;;;4.30;;
51810;SDS011;52468;40.116;18.296;2022-08-01T04:21:18;19.17;;;4.60;;
51810;SDS011;52468;40.116;18.296;2022-08-01T04:23:50;9.03;;;3.97;;
51810;SDS011;52468;40.116;18.296;2022-08-01T04:26:22;12.40;;;4.70;;
51810;SDS011;52468;40.116;18.296;2022-08-01T04:28:53;16.13;;;3.97;;
51810;SDS011;52468;40.116;18.296;2022-08-01T04:31:22;8.30;;;3.23;;
51810;SDS011;52468;40.116;18.296;2022-08-01T04:33:53;13.67;;;4.40;;
51810;SDS011;52468;40.116;18.296;2022-08-01T04:36:23;10.77;;;3.63;;
51810;SDS011;52468;40.116;18.296;2022-08-01T04:38:55;12.83;;;4.10;;
51810;SDS011;52468;40.116;18.296;2022-08-01T04:41:27;8.70;;;4.67;;
51810;SDS011;52468;40.116;18.296;2022-08-01T04:43:57;12.50;;;3.50;;
51810;SDS011;52468;40.116;18.296;2022-08-01T04:46:29;11.03;;;4.00;;
51810;SDS011;52468;40.116;18.296;2022-08-01T04:49:00;7.50;;;3.80;;
51810;SDS011;52468;40.116;18.296;2022-08-01T04:51:28;12.53;;;3.80;;
51810;SDS011;52468;40.116;18.296;2022-08-01T04:53:56;9.13;;;3.93;;
51810;SDS011;52468;40.116;18.296;2022-08-01T04:56:25;12.43;;;4.03;;
51810;SDS011;52468;40.116;18.296;2022-08-01T04:58:53;8.30;;;4.17;;
51810;SDS011;52468;40.116;18.296;2022-08-01T05:01:40;7.63;;;3.63;;
51810;SDS011;52468;40.116;18.296;2022-08-01T05:04:08;11.97;;;3.90;;
51810;SDS011;52468;40.116;18.296;2022-08-01T05:06:35;9.43;;;3.83;;
51810;SDS011;52468;40.116;18.296;2022-08-01T05:09:03;11.53;;;4.97;;
51810;SDS011;52468;40.116;18.296;2022-08-01T05:11:31;11.97;;;4.10;;
51810;SDS011;52468;40.116;18.296;2022-08-01T05:13:59;11.40;;;4.53;;
51810;SDS011;52468;40.116;18.296;2022-08-01T05:16:27;9.13;;;4.20;;
51810;SDS011;52468;40.116;18.296;2022-08-01T05:18:55;16.40;;;5.07;;
51810;SDS011;52468;40.116;18.296;2022-08-01T05:21:22;10.77;;;4.17;;
51810;SDS011;52468;40.116;18.296;2022-08-01T05:23:50;14.97;;;5.00;;
51810;SDS011;52468;40.116;18.296;2022-08-01T05:26:18;14.27;;;5.10;;
51810;SDS011;52468;40.116;18.296;2022-08-01T05:28:46;9.77;;;4.30;;
51810;SDS011;52468;40.116;18.296;2022-08-01T05:31:14;7.90;;;4.60;;
51810;SDS011;52468;40.116;18.296;2022-08-01T05:33:42;13.47;;;5.20;;
51810;SDS011;52468;40.116;18.296;2022-08-01T05:36:10;16.63;;;5.93;;
51810;SDS011;52468;40.116;18.296;2022-08-01T05:38:38;6.83;;;4.03;;
51810;SDS011;52468;40.116;18.296;2022-08-01T05:41:06;6.23;;;5.03;;
51810;SDS011;52468;40.116;18.296;2022-08-01T05:43:34;11.63;;;5.40;;
51810;SDS011;52468;40.116;18.296;2022-08-01T05:46:02;13.17;;;5.43;;
51810;SDS011;52468;40.116;18.296;2022-08-01T05:48:30;12.40;;;5.03;;
51810;SDS011;52468;40.116;18.296;2022-08-01T05:50:58;16.37;;;5.37;;
51810;SDS011;52468;40.116;18.296;2022-08-01T05:53:26;8.13;;;5.57;;
51810;SDS011;52468;40.116;18.296;2022-08-01T05:55:54;5.07;;;4.27;;
51810;SDS011;52468;40.116;18.296;2022-08-01T05:58:22;8.17;;;4.67;;
51810;SDS011;52468;40.116;18.296;2022-08-01T06:01:04;11.07;;;4.27;;
51810;SDS011;52468;40.116;18.296;2022-08-01T06:03:51;7.20;;;4.20;;
51810;SDS011;52468;40.116;18.296;2022-08-01T06:06:21;10.67;;;4.60;;
51810;SDS011;52468;40.116;18.296;2022-08-01T06:08:49;9.67;;;5.13;;
51810;SDS011;52468;40.116;18.296;2022-08-01T06:11:17;8.10;;;4.87;;
51810;SDS011;52468;40.116;18.296;2022-08-01T06:13:45;10.68;;;5.32;;
51810;SDS011;52468;40.116;18.296;2022-08-01T06:16:13;7.38;;;4.72;;
51810;SDS011;52468;40.116;18.296;2022-08-01T06:18:41;5.03;;;4.53;;
51810;SDS011;52468;40.116;18.296;2022-08-01T06:21:09;9.38;;;4.82;;
51810;SDS011;52468;40.116;18.296;2022-08-01T06:23:37;10.52;;;4.70;;
51810;SDS011;52468;40.116;18.296;2022-08-01T06:26:05;7.32;;;4.50;;
51810;SDS011;52468;40.116;18.296;2022-08-01T06:28:33;7.57;;;4.85;;
51810;SDS011;52468;40.116;18.296;2022-08-01T06:31:01;13.23;;;5.43;;
51810;SDS011;52468;40.116;18.296;2022-08-01T06:33:28;8.05;;;5.18;;
51810;SDS011;52468;40.116;18.296;2022-08-01T06:35:56;7.85;;;5.28;;
51810;SDS011;52468;40.116;18.296;2022-08-01T06:38:24;6.25;;;5.28;;
51810;SDS011;52468;40.116;18.296;2022-08-01T06:40:52;10.25;;;5.32;;
51810;SDS011;52468;40.116;18.296;2022-08-01T06:43:20;9.35;;;5.75;;
51810;SDS011;52468;40.116;18.296;2022-08-01T06:45:48;12.02;;;5.72;;
51810;SDS011;52468;40.116;18.296;2022-08-01T06:48:16;7.97;;;5.65;;
51810;SDS011;52468;40.116;18.296;2022-08-01T06:50:44;7.28;;;5.90;;
51810;SDS011;52468;40.116;18.296;2022-08-01T06:53:12;6.40;;;5.88;;
51810;SDS011;52468;40.116;18.296;2022-08-01T06:55:39;7.55;;;5.88;;
51810;SDS011;52468;40.116;18.296;2022-08-01T06:58:07;16.95;;;6.20;;
51810;SDS011;52468;40.116;18.296;2022-08-01T07:00:35;7.32;;;5.35;;
51810;SDS011;52468;40.116;18.296;2022-08-01T07:03:03;8.38;;;5.35;;
51810;SDS011;52468;40.116;18.296;2022-08-01T07:05:31;8.18;;;5.25;;
51810;SDS011;52468;40.116;18.296;2022-08-01T07:07:59;10.93;;;5.18;;
51810;SDS011;52468;40.116;18.296;2022-08-01T07:10:27;7.00;;;5.72;;
51810;SDS011;52468;40.116;18.296;2022-08-01T07:12:55;7.93;;;4.53;;
51810;SDS011;52468;40.116;18.296;2022-08-01T07:15:23;11.88;;;5.07;;
51810;SDS011;52468;40.116;18.296;2022-08-01T07:17:54;6.97;;;5.28;;
51810;SDS011;52468;40.116;18.296;2022-08-01T07:20:24;9.80;;;4.75;;
51810;SDS011;52468;40.116;18.296;2022-08-01T07:22:51;7.55;;;5.07;;
51810;SDS011;52468;40.116;18.296;2022-08-01T07:25:19;9.60;;;5.50;;
51810;SDS011;52468;40.116;18.296;2022-08-01T07:27:47;8.75;;;5.00;;
51810;SDS011;52468;40.116;18.296;2022-08-01T07:30:15;9.27;;;4.88;;
51810;SDS011;52468;40.116;18.296;2022-08-01T07:32:45;8.40;;;5.38;;
51810;SDS011;52468;40.116;18.296;2022-08-01T07:35:13;8.43;;;5.03;;
51810;SDS011;52468;40.116;18.296;2022-08-01T07:37:41;14.02;;;7.63;;
51810;SDS011;52468;40.116;18.296;2022-08-01T07:40:09;5.03;;;4.25;;
51810;SDS011;52468;40.116;18.296;2022-08-01T07:42:37;7.70;;;5.00;;
51810;SDS011;52468;40.116;18.296;2022-08-01T07:45:05;6.93;;;4.70;;
51810;SDS011;52468;40.116;18.296;2022-08-01T07:47:33;9.85;;;4.28;;
51810;SDS011;52468;40.116;18.296;2022-08-01T07:50:02;7.18;;;4.40;;
51810;SDS011;52468;40.116;18.296;2022-08-01T07:52:31;11.07;;;5.63;;
51810;SDS011;52468;40.116;18.296;2022-08-01T07:54:59;7.45;;;4.05;;
51810;SDS011;52468;40.116;18.296;2022-08-01T07:57:27;6.35;;;3.92;;
51810;SDS011;52468;40.116;18.296;2022-08-01T07:59:55;9.60;;;4.75;;
51810;SDS011;52468;40.116;18.296;2022-08-01T08:02:22;6.57;;;3.78;;
51810;SDS011;52468;40.116;18.296;2022-08-01T08:04:50;12.48;;;4.25;;
51810;SDS011;52468;40.116;18.296;2022-08-01T08:07:18;13.15;;;4.30;;
51810;SDS011;52468;40.116;18.296;2022-08-01T08:09:46;9.00;;;3.85;;
51810;SDS011;52468;40.116;18.296;2022-08-01T08:12:14;9.65;;;4.35;;
51810;SDS011;52468;40.116;18.296;2022-08-01T08:14:42;8.75;;;4.25;;
51810;SDS011;52468;40.116;18.296;2022-08-01T08:17:09;9.10;;;4.40;;
51810;SDS011;52468;40.116;18.296;2022-08-01T08:19:37;4.90;;;4.40;;
51810;SDS011;52468;40.116;18.296;2022-08-01T08:22:06;8.90;;;4.38;;
51810;SDS011;52468;40.116;18.296;2022-08-01T08:24:35;6.95;;;4.20;;
51810;SDS011;52468;40.116;18.296;2022-08-01T08:27:03;8.23;;;4.13;;
51810;SDS011;52468;40.116;18.296;2022-08-01T08:29:32;6.60;;;3.67;;
51810;SDS011;52468;40.116;18.296;2022-08-01T08:32:00;10.48;;;4.90;;
51810;SDS011;52468;40.116;18.296;2022-08-01T08:34:28;6.43;;;3.17;;
51810;SDS011;52468;40.116;18.296;2022-08-01T08:36:58;4.30;;;3.58;;
51810;SDS011;52468;40.116;18.296;2022-08-01T08:39:26;5.38;;;3.30;;
51810;SDS011;52468;40.116;18.296;2022-08-01T08:41:56;11.88;;;3.30;;
51810;SDS011;52468;40.116;18.296;2022-08-01T08:44:26;9.27;;;4.25;;
51810;SDS011;52468;40.116;18.296;2022-08-01T08:46:55;6.20;;;3.53;;
51810;SDS011;52468;40.116;18.296;2022-08-01T08:49:26;8.15;;;3.85;;
51810;SDS011;52468;40.116;18.296;2022-08-01T08:52:00;10.40;;;3.33;;
51810;SDS011;52468;40.116;18.296;2022-08-01T08:54:30;5.60;;;3.00;;
51810;SDS011;52468;40.116;18.296;2022-08-01T08:56:59;9.23;;;2.92;;
51810;SDS011;52468;40.116;18.296;2022-08-01T08:59:28;6.30;;;3.50;;
51810;SDS011;52468;40.116;18.296;2022-08-01T09:01:56;9.85;;;3.10;;
51810;SDS011;52468;40.116;18.296;2022-08-01T09:04:33;5.63;;;3.03;;
51810;SDS011;52468;40.116;18.296;2022-08-01T09:07:03;6.93;;;2.47;;
51810;SDS011;52468;40.116;18.296;2022-08-01T09:09:32;5.10;;;3.38;;
51810;SDS011;52468;40.116;18.296;2022-08-01T09:12:00;7.47;;;2.80;;
51810;SDS011;52468;40.116;18.296;2022-08-01T09:14:28;6.45;;;3.53;;
51810;SDS011;52468;40.116;18.296;2022-08-01T09:17:06;5.15;;;2.40;;
51810;SDS011;52468;40.116;18.296;2022-08-01T09:19:38;5.07;;;2.70;;
51810;SDS011;52468;40.116;18.296;2022-08-01T09:22:09;3.38;;;2.50;;
51810;SDS011;52468;40.116;18.296;2022-08-01T09:27:36;3.13;;;2.03;;
51810;SDS011;52468;40.116;18.296;2022-08-01T09:30:12;3.97;;;2.17;;
51810;SDS011;52468;40.116;18.296;2022-08-01T09:35:37;8.07;;;2.88;;
51810;SDS011;52468;40.116;18.296;2022-08-01T09:40:56;6.95;;;3.20;;
51810;SDS011;52468;40.116;18.296;2022-08-01T09:43:26;9.35;;;3.13;;
51810;SDS011;52468;40.116;18.296;2022-08-01T09:45:55;4.10;;;2.40;;
51810;SDS011;52468;40.116;18.296;2022-08-01T09:48:23;5.15;;;2.60;;
51810;SDS011;52468;40.116;18.296;2022-08-01T09:50:52;7.63;;;2.75;;
51810;SDS011;52468;40.116;18.296;2022-08-01T09:53:20;7.07;;;3.78;;
51810;SDS011;52468;40.116;18.296;2022-08-01T09:55:48;4.07;;;2.70;;
51810;SDS011;52468;40.116;18.296;2022-08-01T09:58:19;4.32;;;2.50;;
51810;SDS011;52468;40.116;18.296;2022-08-01T10:00:57;4.07;;;2.50;;
51810;SDS011;52468;40.116;18.296;2022-08-01T10:03:27;5.40;;;2.67;;
51810;SDS011;52468;40.116;18.296;2022-08-01T10:05:56;3.35;;;2.17;;
51810;SDS011;52468;40.116;18.296;2022-08-01T10:08:26;5.22;;;1.83;;
51810;SDS011;52468;40.116;18.296;2022-08-01T10:11:07;2.80;;;2.50;;
51810;SDS011;52468;40.116;18.296;2022-08-01T10:13:36;2.30;;;2.10;;
51810;SDS011;52468;40.116;18.296;2022-08-01T10:16:05;4.95;;;2.47;;
51810;SDS011;52468;40.116;18.296;2022-08-01T10:18:34;5.15;;;2.55;;
51810;SDS011;52468;40.116;18.296;2022-08-01T10:21:03;6.68;;;2.25;;
51810;SDS011;52468;40.116;18.296;2022-08-01T10:23:35;5.82;;;2.47;;
51810;SDS011;52468;40.116;18.296;2022-08-01T10:26:07;6.47;;;2.08;;
51810;SDS011;52468;40.116;18.296;2022-08-01T10:28:37;2.42;;;1.55;;
51810;SDS011;52468;40.116;18.296;2022-08-01T10:31:07;4.85;;;2.30;;
51810;SDS011;52468;40.116;18.296;2022-08-01T10:33:58;2.38;;;1.80;;
51810;SDS011;52468;40.116;18.296;2022-08-01T10:36:27;4.00;;;2.35;;
51810;SDS011;52468;40.116;18.296;2022-08-01T10:38:55;3.95;;;2.22;;
51810;SDS011;52468;40.116;18.296;2022-08-01T10:41:24;3.55;;;2.20;;
51810;SDS011;52468;40.116;18.296;2022-08-01T10:43:53;1.80;;;1.70;;
51810;SDS011;52468;40.116;18.296;2022-08-01T10:46:21;3.78;;;2.75;;
51810;SDS011;52468;40.116;18.296;2022-08-01T10:49:10;2.42;;;2.00;;
51810;SDS011;52468;40.116;18.296;2022-08-01T10:51:41;5.07;;;2.28;;
51810;SDS011;52468;40.116;18.296;2022-08-01T10:54:10;3.60;;;2.17;;
51810;SDS011;52468;40.116;18.296;2022-08-01T10:56:43;5.88;;;2.45;;
51810;SDS011;52468;40.116;18.296;2022-08-01T10:59:29;8.75;;;2.78;;
51810;SDS011;52468;40.116;18.296;2022-08-01T11:07:38;3.50;;;2.20;;
51810;SDS011;52468;40.116;18.296;2022-08-01T11:12:46;5.15;;;3.08;;
51810;SDS011;52468;40.116;18.296;2022-08-01T11:17:43;11.60;;;3.03;;
51810;SDS011;52468;40.116;18.296;2022-08-01T11:20:15;9.10;;;2.75;;
51810;SDS011;52468;40.116;18.296;2022-08-01T11:30:41;4.88;;;2.15;;
51810;SDS011;52468;40.116;18.296;2022-08-01T11:33:12;2.50;;;2.03;;
51810;SDS011;52468;40.116;18.296;2022-08-01T11:38:40;2.55;;;1.98;;
51810;SDS011;52468;40.116;18.296;2022-08-01T11:44:00;5.03;;;2.15;;
51810;SDS011;52468;40.116;18.296;2022-08-01T11:54:35;4.70;;;2.50;;
51810;SDS011;52468;40.116;18.296;2022-08-01T11:57:22;4.00;;;2.20;;
51810;SDS011;52468;40.116;18.296;2022-08-01T11:59:55;2.78;;;2.38;;
51810;SDS011;52468;40.116;18.296;2022-08-01T12:02:25;3.15;;;1.90;;
51810;SDS011;52468;40.116;18.296;2022-08-01T12:05:08;3.67;;;2.17;;
51810;SDS011;52468;40.116;18.296;2022-08-01T12:07:39;4.45;;;2.88;;
51810;SDS011;52468;40.116;18.296;2022-08-01T12:10:09;6.32;;;2.70;;
51810;SDS011;52468;40.116;18.296;2022-08-01T12:12:42;3.50;;;2.47;;
51810;SDS011;52468;40.116;18.296;2022-08-01T12:15:16;2.65;;;2.20;;
51810;SDS011;52468;40.116;18.296;2022-08-01T12:17:48;2.25;;;2.05;;
51810;SDS011;52468;40.116;18.296;2022-08-01T12:20:27;6.03;;;2.30;;
51810;SDS011;52468;40.116;18.296;2022-08-01T12:23:01;10.57;;;3.03;;
51810;SDS011;52468;40.116;18.296;2022-08-01T12:25:43;2.45;;;2.22;;
51810;SDS011;52468;40.116;18.296;2022-08-01T12:28:11;3.65;;;1.80;;
51810;SDS011;52468;40.116;18.296;2022-08-01T12:30:42;3.38;;;2.00;;
51810;SDS011;52468;40.116;18.296;2022-08-01T12:33:10;4.13;;;2.15;;
51810;SDS011;52468;40.116;18.296;2022-08-01T12:35:44;4.07;;;2.08;;
51810;SDS011;52468;40.116;18.296;2022-08-01T12:40:45;5.30;;;2.35;;
51810;SDS011;52468;40.116;18.296;2022-08-01T12:43:15;3.08;;;2.10;;
51810;SDS011;52468;40.116;18.296;2022-08-01T12:45:48;2.97;;;2.25;;
51810;SDS011;52468;40.116;18.296;2022-08-01T12:48:18;3.47;;;2.20;;
51810;SDS011;52468;40.116;18.296;2022-08-01T12:50:49;2.55;;;2.28;;
51810;SDS011;52468;40.116;18.296;2022-08-01T12:53:19;2.65;;;2.05;;
51810;SDS011;52468;40.116;18.296;2022-08-01T12:55:55;3.83;;;2.88;;
51810;SDS011;52468;40.116;18.296;2022-08-01T12:58:23;3.85;;;2.03;;
51810;SDS011;52468;40.116;18.296;2022-08-01T13:01:01;2.97;;;2.63;;
51810;SDS011;52468;40.116;18.296;2022-08-01T13:03:31;2.45;;;2.15;;
51810;SDS011;52468;40.116;18.296;2022-08-01T13:05:58;2.80;;;2.60;;
51810;SDS011;52468;40.116;18.296;2022-08-01T13:08:31;2.67;;;2.42;;
51810;SDS011;52468;40.116;18.296;2022-08-01T13:11:14;3.58;;;2.72;;
51810;SDS011;52468;40.116;18.296;2022-08-01T13:13:45;3.80;;;3.15;;
51810;SDS011;52468;40.116;18.296;2022-08-01T13:16:16;4.13;;;2.47;;
51810;SDS011;52468;40.116;18.296;2022-08-01T13:18:48;3.35;;;2.50;;
51810;SDS011;52468;40.116;18.296;2022-08-01T13:21:18;2.58;;;2.38;;
51810;SDS011;52468;40.116;18.296;2022-08-01T13:26:44;3.13;;;2.53;;
51810;SDS011;52468;40.116;18.296;2022-08-01T13:29:13;3.47;;;2.33;;
51810;SDS011;52468;40.116;18.296;2022-08-01T13:31:50;3.33;;;2.60;;
51810;SDS011;52468;40.116;18.296;2022-08-01T13:34:17;3.40;;;3.10;;
51810;SDS011;52468;40.116;18.296;2022-08-01T13:36:56;3.08;;;2.78;;
51810;SDS011;52468;40.116;18.296;2022-08-01T13:39:23;2.33;;;2.13;;
51810;SDS011;52468;40.116;18.296;2022-08-01T13:42:15;2.55;;;2.35;;
51810;SDS011;52468;40.116;18.296;2022-08-01T13:44:43;3.58;;;2.53;;
51810;SDS011;52468;40.116;18.296;2022-08-01T13:47:14;4.38;;;2.65;;
51810;SDS011;52468;40.116;18.296;2022-08-01T13:49:45;3.03;;;2.55;;
51810;SDS011;52468;40.116;18.296;2022-08-01T13:52:12;6.28;;;2.55;;
51810;SDS011;52468;40.116;18.296;2022-08-01T13:54:40;3.40;;;2.35;;
51810;SDS011;52468;40.116;18.296;2022-08-01T13:57:08;3.35;;;2.38;;
51810;SDS011;52468;40.116;18.296;2022-08-01T13:59:36;4.75;;;2.22;;
51810;SDS011;52468;40.116;18.296;2022-08-01T14:02:04;2.15;;;1.88;;
51810;SDS011;52468;40.116;18.296;2022-08-01T14:04:32;2.17;;;1.98;;
51810;SDS011;52468;40.116;18.296;2022-08-01T14:07:00;2.58;;;2.15;;
51810;SDS011;52468;40.116;18.296;2022-08-01T14:09:31;3.40;;;1.95;;
51810;SDS011;52468;40.116;18.296;2022-08-01T14:12:00;3.30;;;2.28;;
51810;SDS011;52468;40.116;18.296;2022-08-01T14:14:28;2.90;;;1.80;;
51810;SDS011;52468;40.116;18.296;2022-08-01T14:16:56;2.45;;;1.80;;
51810;SDS011;52468;40.116;18.296;2022-08-01T14:19:24;2.53;;;1.73;;
51810;SDS011;52468;40.116;18.296;2022-08-01T14:21:52;2.05;;;1.80;;
51810;SDS011;52468;40.116;18.296;2022-08-01T14:24:19;3.58;;;1.92;;
51810;SDS011;52468;40.116;18.296;2022-08-01T14:26:47;1.92;;;1.75;;
51810;SDS011;52468;40.116;18.296;2022-08-01T14:29:15;2.33;;;2.00;;
51810;SDS011;52468;40.116;18.296;2022-08-01T14:31:43;1.80;;;1.50;;
51810;SDS011;52468;40.116;18.296;2022-08-01T14:34:11;1.98;;;1.52;;
51810;SDS011;52468;40.116;18.296;2022-08-01T14:36:40;5.15;;;1.52;;
51810;SDS011;52468;40.116;18.296;2022-08-01T14:39:08;4.00;;;1.23;;
51810;SDS011;52468;40.116;18.296;2022-08-01T14:41:36;3.83;;;1.50;;
51810;SDS011;52468;40.116;18.296;2022-08-01T14:44:04;3.17;;;1.60;;
51810;SDS011;52468;40.116;18.296;2022-08-01T14:46:31;2.42;;;1.73;;
51810;SDS011;52468;40.116;18.296;2022-08-01T14:48:59;3.67;;;1.52;;
51810;SDS011;52468;40.116;18.296;2022-08-01T14:51:27;4.93;;;1.67;;
51810;SDS011;52468;40.116;18.296;2022-08-01T14:54:00;1.52;;;1.25;;
51810;SDS011;52468;40.116;18.296;2022-08-01T14:56:27;2.45;;;1.52;;
51810;SDS011;52468;40.116;18.296;2022-08-01T14:58:55;1.48;;;1.38;;
51810;SDS011;52468;40.116;18.296;2022-08-01T15:01:23;2.60;;;1.25;;
51810;SDS011;52468;40.116;18.296;2022-08-01T15:03:51;3.05;;;1.50;;
51810;SDS011;52468;40.116;18.296;2022-08-01T15:06:19;3.58;;;1.60;;
51810;SDS011;52468;40.116;18.296;2022-08-01T15:08:47;3.60;;;1.80;;
51810;SDS011;52468;40.116;18.296;2022-08-01T15:11:15;2.33;;;1.58;;
51810;SDS011;52468;40.116;18.296;2022-08-01T15:13:43;2.42;;;1.45;;
51810;SDS011;52468;40.116;18.296;2022-08-01T15:16:11;3.40;;;1.63;;
51810;SDS011;52468;40.116;18.296;2022-08-01T15:18:39;3.53;;;1.60;;
51810;SDS011;52468;40.116;18.296;2022-08-01T15:21:09;3.28;;;1.73;;
51810;SDS011;52468;40.116;18.296;2022-08-01T15:23:37;1.90;;;1.50;;
51810;SDS011;52468;40.116;18.296;2022-08-01T15:26:05;2.20;;;1.92;;
51810;SDS011;52468;40.116;18.296;2022-08-01T15:28:40;1.50;;;1.40;;
51810;SDS011;52468;40.116;18.296;2022-08-01T15:31:08;3.90;;;1.60;;
51810;SDS011;52468;40.116;18.296;2022-08-01T15:33:38;3.25;;;1.30;;
51810;SDS011;52468;40.116;18.296;2022-08-01T15:36:06;2.33;;;1.55;;
51810;SDS011;52468;40.116;18.296;2022-08-01T15:38:34;3.10;;;2.58;;
51810;SDS011;52468;40.116;18.296;2022-08-01T15:41:02;2.80;;;2.15;;
51810;SDS011;52468;40.116;18.296;2022-08-01T15:43:30;4.03;;;1.52;;